sensor_id;sensor_type;location;lat;lon;timestamp;pressure;altitude;pressure_sealevel;temperature;humidity
65718;BME280;52445;52.466;-1.016;2023-08-08T00:01:13;100213.31;;;13.53;58.41
65718;BME280;52445;52.466;-1.016;2023-08-08T00:03:39;100210.75;;;13.50;58.57
65718;BME280;52445;52.466;-1.016;2023-08-08T00:06:06;100216.84;;;13.46;59.47
65718;BME280;52445;52.466;-1.016;2023-08-08T00:08:33;100216.03;;;13.44;59.31
65718;BME280;52445;52.466;-1.016;2023-08-08T00:10:59;100212.56;;;13.40;58.62
65718;BME280;52445;52.466;-1.016;2023-08-08T00:13:26;100213.47;;;13.37;59.81
65718;BME280;52445;52.466;-1.016;2023-08-08T00:15:52;100201.38;;;13.35;59.31
65718;BME280;52445;52.466;-1.016;2023-08-08T00:18:19;100199.69;;;13.32;59.62
65718;BME280;52445;52.466;-1.016;2023-08-08T00:20:46;100199.72;;;13.28;59.61
65718;BME280;52445;52.466;-1.016;2023-08-08T00:23:13;100203.22;;;13.25;59.33
65718;BME280;52445;52.466;-1.016;2023-08-08T00:25:39;100204.97;;;13.23;59.30
65718;BME280;52445;52.466;-1.016;2023-08-08T00:28:06;100194.59;;;13.20;59.95
65718;BME280;52445;52.466;-1.016;2023-08-08T00:30:33;100191.16;;;13.18;59.67
65718;BME280;52445;52.466;-1.016;2023-08-08T00:32:59;100186.00;;;13.15;59.37
65718;BME280;52445;52.466;-1.016;2023-08-08T00:35:26;100189.50;;;13.10;60.21
65718;BME280;52445;52.466;-1.016;2023-08-08T00:37:53;100184.31;;;13.10;59.86
65718;BME280;52445;52.466;-1.016;2023-08-08T00:40:20;100171.31;;;13.07;60.00
65718;BME280;52445;52.466;-1.016;2023-08-08T00:42:47;100179.13;;;13.06;59.88
65718;BME280;52445;52.466;-1.016;2023-08-08T00:45:13;100175.72;;;13.02;60.76
65718;BME280;52445;52.466;-1.016;2023-08-08T00:47:40;100173.16;;;12.99;60.54
65718;BME280;52445;52.466;-1.016;2023-08-08T00:50:07;100171.47;;;12.95;59.56
65718;BME280;52445;52.466;-1.016;2023-08-08T00:52:35;100171.50;;;12.92;60.02
65718;BME280;52445;52.466;-1.016;2023-08-08T00:55:02;100170.69;;;12.88;60.98
65718;BME280;52445;52.466;-1.016;2023-08-08T00:57:30;100171.59;;;12.84;60.90
65718;BME280;52445;52.466;-1.016;2023-08-08T00:59:56;100173.34;;;12.80;60.47
65718;BME280;52445;52.466;-1.016;2023-08-08T01:02:23;100172.50;;;12.78;59.98
65718;BME280;52445;52.466;-1.016;2023-08-08T01:04:50;100169.94;;;12.75;60.28
65718;BME280;52445;52.466;-1.016;2023-08-08T01:07:27;100169.97;;;12.70;60.37
65718;BME280;52445;52.466;-1.016;2023-08-08T01:12:38;100161.34;;;12.68;60.41
65718;BME280;52445;52.466;-1.016;2023-08-08T01:15:07;100157.03;;;12.66;60.36
65718;BME280;52445;52.466;-1.016;2023-08-08T01:17:35;100155.31;;;12.62;61.76
65718;BME280;52445;52.466;-1.016;2023-08-08T01:20:04;100160.56;;;12.58;61.61
65718;BME280;52445;52.466;-1.016;2023-08-08T01:22:39;100160.63;;;12.52;61.66
65718;BME280;52445;52.466;-1.016;2023-08-08T01:25:09;100159.75;;;12.50;61.85
65718;BME280;52445;52.466;-1.016;2023-08-08T01:27:37;100152.00;;;12.47;60.89
65718;BME280;52445;52.466;-1.016;2023-08-08T01:30:06;100146.84;;;12.44;62.19
65718;BME280;52445;52.466;-1.016;2023-08-08T01:32:33;100156.38;;;12.42;62.18
65718;BME280;52445;52.466;-1.016;2023-08-08T01:35:00;100144.25;;;12.41;62.28
65718;BME280;52445;52.466;-1.016;2023-08-08T01:37:32;100127.84;;;12.39;61.16
65718;BME280;52445;52.466;-1.016;2023-08-08T01:40:03;100129.56;;;12.40;61.16
65718;BME280;52445;52.466;-1.016;2023-08-08T01:42:31;100127.84;;;12.39;61.40
65718;BME280;52445;52.466;-1.016;2023-08-08T01:44:58;100129.59;;;12.37;62.49
65718;BME280;52445;52.466;-1.016;2023-08-08T01:47:25;100128.72;;;12.34;62.29
65718;BME280;52445;52.466;-1.016;2023-08-08T01:49:52;100132.19;;;12.33;62.50
65718;BME280;52445;52.466;-1.016;2023-08-08T01:52:19;100131.38;;;12.31;62.54
65718;BME280;52445;52.466;-1.016;2023-08-08T01:54:46;100134.81;;;12.30;63.11
65718;BME280;52445;52.466;-1.016;2023-08-08T01:57:12;100137.47;;;12.27;62.87
65718;BME280;52445;52.466;-1.016;2023-08-08T01:59:39;100131.41;;;12.25;61.80
65718;BME280;52445;52.466;-1.016;2023-08-08T02:02:06;100136.59;;;12.25;62.09
65718;BME280;52445;52.466;-1.016;2023-08-08T02:04:35;100126.22;;;12.22;63.11
65718;BME280;52445;52.466;-1.016;2023-08-08T02:07:02;100121.94;;;12.19;62.85
65718;BME280;52445;52.466;-1.016;2023-08-08T02:09:29;100120.22;;;12.20;62.15
65718;BME280;52445;52.466;-1.016;2023-08-08T02:11:55;100122.81;;;12.17;62.60
65718;BME280;52445;52.466;-1.016;2023-08-08T02:14:22;100122.84;;;12.14;63.40
65718;BME280;52445;52.466;-1.016;2023-08-08T02:16:49;100121.13;;;12.13;63.30
65718;BME280;52445;52.466;-1.016;2023-08-08T02:19:16;100111.63;;;12.12;63.61
65718;BME280;52445;52.466;-1.016;2023-08-08T02:21:43;100113.34;;;12.11;63.80
65718;BME280;52445;52.466;-1.016;2023-08-08T02:24:09;100105.56;;;12.10;63.37
65718;BME280;52445;52.466;-1.016;2023-08-08T02:26:36;100108.19;;;12.08;63.75
65718;BME280;52445;52.466;-1.016;2023-08-08T02:29:03;100111.66;;;12.07;62.85
65718;BME280;52445;52.466;-1.016;2023-08-08T02:31:29;100120.31;;;12.07;63.76
65718;BME280;52445;52.466;-1.016;2023-08-08T02:33:56;100112.53;;;12.07;64.13
65718;BME280;52445;52.466;-1.016;2023-08-08T02:36:22;100113.38;;;12.08;63.25
65718;BME280;52445;52.466;-1.016;2023-08-08T02:38:49;100109.06;;;12.08;62.77
65718;BME280;52445;52.466;-1.016;2023-08-08T02:41:19;100110.75;;;12.10;63.81
65718;BME280;52445;52.466;-1.016;2023-08-08T02:43:47;100108.16;;;12.10;63.46
65718;BME280;52445;52.466;-1.016;2023-08-08T02:46:13;100103.84;;;12.10;63.37
65718;BME280;52445;52.466;-1.016;2023-08-08T02:48:40;100107.28;;;12.11;63.88
65718;BME280;52445;52.466;-1.016;2023-08-08T02:51:07;100104.69;;;12.11;63.36
65718;BME280;52445;52.466;-1.016;2023-08-08T02:53:33;100108.16;;;12.13;63.16
65718;BME280;52445;52.466;-1.016;2023-08-08T02:56:00;100107.25;;;12.14;63.58
65718;BME280;52445;52.466;-1.016;2023-08-08T02:58:27;100112.44;;;12.17;63.83
65718;BME280;52445;52.466;-1.016;2023-08-08T03:00:53;100110.72;;;12.16;64.49
65718;BME280;52445;52.466;-1.016;2023-08-08T03:03:20;100105.47;;;12.19;63.70
65718;BME280;52445;52.466;-1.016;2023-08-08T03:05:47;100102.03;;;12.18;63.74
65718;BME280;52445;52.466;-1.016;2023-08-08T03:08:13;100112.41;;;12.20;63.93
65718;BME280;52445;52.466;-1.016;2023-08-08T03:10:40;100108.06;;;12.22;64.76
65718;BME280;52445;52.466;-1.016;2023-08-08T03:13:07;100114.97;;;12.25;63.45
65718;BME280;52445;52.466;-1.016;2023-08-08T03:15:34;100107.16;;;12.26;63.94
65718;BME280;52445;52.466;-1.016;2023-08-08T03:18:02;100108.91;;;12.27;63.66
65718;BME280;52445;52.466;-1.016;2023-08-08T03:20:29;100109.75;;;12.28;64.99
65718;BME280;52445;52.466;-1.016;2023-08-08T03:22:56;100107.13;;;12.29;63.76
65718;BME280;52445;52.466;-1.016;2023-08-08T03:25:23;100117.53;;;12.29;63.92
65718;BME280;52445;52.466;-1.016;2023-08-08T03:27:49;100110.63;;;12.28;64.43
65718;BME280;52445;52.466;-1.016;2023-08-08T03:30:16;100110.63;;;12.28;65.11
65718;BME280;52445;52.466;-1.016;2023-08-08T03:32:43;100115.81;;;12.28;64.83
65718;BME280;52445;52.466;-1.016;2023-08-08T03:35:09;100115.81;;;12.28;65.26
65718;BME280;52445;52.466;-1.016;2023-08-08T03:37:36;100114.09;;;12.27;64.42
65718;BME280;52445;52.466;-1.016;2023-08-08T03:40:03;100119.28;;;12.29;64.65
65718;BME280;52445;52.466;-1.016;2023-08-08T03:42:30;100124.44;;;12.30;65.50
65718;BME280;52445;52.466;-1.016;2023-08-08T03:44:56;100119.22;;;12.30;64.62
65718;BME280;52445;52.466;-1.016;2023-08-08T03:47:23;100114.91;;;12.31;63.93
65718;BME280;52445;52.466;-1.016;2023-08-08T03:49:50;100122.69;;;12.32;65.05
65718;BME280;52445;52.466;-1.016;2023-08-08T03:52:16;100114.91;;;12.32;64.57
65718;BME280;52445;52.466;-1.016;2023-08-08T03:54:43;100116.63;;;12.32;63.97
65718;BME280;52445;52.466;-1.016;2023-08-08T03:57:10;100117.50;;;12.32;64.42
65718;BME280;52445;52.466;-1.016;2023-08-08T03:59:37;100108.84;;;12.30;64.26
65718;BME280;52445;52.466;-1.016;2023-08-08T04:02:03;100113.19;;;12.30;65.07
65718;BME280;52445;52.466;-1.016;2023-08-08T04:04:31;100117.53;;;12.29;64.57
65718;BME280;52445;52.466;-1.016;2023-08-08T04:06:58;100114.91;;;12.31;64.58
65718;BME280;52445;52.466;-1.016;2023-08-08T04:09:25;100112.31;;;12.29;64.61
65718;BME280;52445;52.466;-1.016;2023-08-08T04:11:51;100115.78;;;12.31;64.31
65718;BME280;52445;52.466;-1.016;2023-08-08T04:14:18;100114.03;;;12.33;64.76
65718;BME280;52445;52.466;-1.016;2023-08-08T04:16:45;100109.72;;;12.32;64.99
65718;BME280;52445;52.466;-1.016;2023-08-08T04:19:11;100106.22;;;12.33;64.63
65718;BME280;52445;52.466;-1.016;2023-08-08T04:21:38;100107.09;;;12.32;64.79
65718;BME280;52445;52.466;-1.016;2023-08-08T04:24:05;100115.78;;;12.31;64.88
65718;BME280;52445;52.466;-1.016;2023-08-08T04:26:34;100116.69;;;12.29;65.72
65718;BME280;52445;52.466;-1.016;2023-08-08T04:29:00;100111.50;;;12.27;65.68
65718;BME280;52445;52.466;-1.016;2023-08-08T04:31:27;100109.75;;;12.25;66.16
65718;BME280;52445;52.466;-1.016;2023-08-08T04:33:55;100102.88;;;12.22;66.09
65718;BME280;52445;52.466;-1.016;2023-08-08T04:36:28;100102.03;;;12.20;66.24
65718;BME280;52445;52.466;-1.016;2023-08-08T04:38:55;100098.56;;;12.18;64.84
65718;BME280;52445;52.466;-1.016;2023-08-08T04:41:22;100097.75;;;12.16;66.33
65718;BME280;52445;52.466;-1.016;2023-08-08T04:43:48;100095.16;;;12.13;66.53
65718;BME280;52445;52.466;-1.016;2023-08-08T04:46:15;100092.56;;;12.13;65.79
65718;BME280;52445;52.466;-1.016;2023-08-08T04:48:42;100088.25;;;12.12;66.73
65718;BME280;52445;52.466;-1.016;2023-08-08T04:51:09;100084.78;;;12.11;65.29
65718;BME280;52445;52.466;-1.016;2023-08-08T04:53:35;100083.06;;;12.12;66.59
65718;BME280;52445;52.466;-1.016;2023-08-08T04:56:02;100085.66;;;12.12;66.10
65718;BME280;52445;52.466;-1.016;2023-08-08T04:58:29;100086.50;;;12.11;65.51
65718;BME280;52445;52.466;-1.016;2023-08-08T05:00:56;100095.16;;;12.14;65.91
65718;BME280;52445;52.466;-1.016;2023-08-08T05:03:23;100086.50;;;12.14;65.83
65718;BME280;52445;52.466;-1.016;2023-08-08T05:05:50;100089.94;;;12.16;66.15
65718;BME280;52445;52.466;-1.016;2023-08-08T05:08:17;100083.00;;;12.16;66.01
65718;BME280;52445;52.466;-1.016;2023-08-08T05:10:44;100080.41;;;12.18;65.76
65718;BME280;52445;52.466;-1.016;2023-08-08T05:13:10;100089.91;;;12.19;65.76
65718;BME280;52445;52.466;-1.016;2023-08-08T05:15:37;100094.22;;;12.23;66.42
65718;BME280;52445;52.466;-1.016;2023-08-08T05:18:04;100076.03;;;12.23;65.98
65718;BME280;52445;52.466;-1.016;2023-08-08T05:20:31;100073.41;;;12.25;66.30
65718;BME280;52445;52.466;-1.016;2023-08-08T05:22:58;100065.59;;;12.26;67.07
65718;BME280;52445;52.466;-1.016;2023-08-08T05:25:24;100077.69;;;12.30;66.50
65718;BME280;52445;52.466;-1.016;2023-08-08T05:27:51;100066.44;;;12.31;67.12
65718;BME280;52445;52.466;-1.016;2023-08-08T05:30:20;100062.94;;;12.36;67.43
65718;BME280;52445;52.466;-1.016;2023-08-08T05:32:46;100075.03;;;12.38;67.30
65718;BME280;52445;52.466;-1.016;2023-08-08T05:35:13;100081.03;;;12.43;67.25
65718;BME280;52445;52.466;-1.016;2023-08-08T05:37:40;100080.13;;;12.47;67.16
65718;BME280;52445;52.466;-1.016;2023-08-08T05:40:07;100077.47;;;12.52;67.02
65718;BME280;52445;52.466;-1.016;2023-08-08T05:42:34;100078.28;;;12.59;66.32
65718;BME280;52445;52.466;-1.016;2023-08-08T05:45:00;100073.91;;;12.64;67.57
65718;BME280;52445;52.466;-1.016;2023-08-08T05:47:27;100081.59;;;12.72;67.29
65718;BME280;52445;52.466;-1.016;2023-08-08T05:49:54;100084.16;;;12.78;66.34
65718;BME280;52445;52.466;-1.016;2023-08-08T05:52:21;100085.81;;;12.85;66.40
65718;BME280;52445;52.466;-1.016;2023-08-08T05:54:48;100084.88;;;12.91;67.43
65718;BME280;52445;52.466;-1.016;2023-08-08T05:57:15;100087.38;;;12.96;67.73
65718;BME280;52445;52.466;-1.016;2023-08-08T05:59:41;100091.66;;;13.02;67.24
65718;BME280;52445;52.466;-1.016;2023-08-08T06:02:11;100088.13;;;13.07;66.75
65718;BME280;52445;52.466;-1.016;2023-08-08T06:04:38;100094.97;;;13.15;67.46
65718;BME280;52445;52.466;-1.016;2023-08-08T06:07:05;100085.34;;;13.20;66.55
65718;BME280;52445;52.466;-1.016;2023-08-08T06:09:36;100095.69;;;13.26;67.08
65718;BME280;52445;52.466;-1.016;2023-08-08T06:12:04;100086.06;;;13.31;67.62
65718;BME280;52445;52.466;-1.016;2023-08-08T06:14:31;100090.34;;;13.37;67.25
65718;BME280;52445;52.466;-1.016;2023-08-08T06:16:57;100085.03;;;13.45;66.61
65718;BME280;52445;52.466;-1.016;2023-08-08T06:19:24;100091.06;;;13.50;66.52
65718;BME280;52445;52.466;-1.016;2023-08-08T06:21:51;100085.78;;;13.56;67.62
65718;BME280;52445;52.466;-1.016;2023-08-08T06:24:18;100084.81;;;13.64;67.25
65718;BME280;52445;52.466;-1.016;2023-08-08T06:26:44;100081.25;;;13.71;67.11
65718;BME280;52445;52.466;-1.016;2023-08-08T06:29:11;100072.44;;;13.78;66.65
65718;BME280;52445;52.466;-1.016;2023-08-08T06:31:41;100070.59;;;13.86;66.88
65718;BME280;52445;52.466;-1.016;2023-08-08T06:34:08;100061.72;;;13.97;67.22
65718;BME280;52445;52.466;-1.016;2023-08-08T06:36:35;100064.09;;;14.09;66.74
65718;BME280;52445;52.466;-1.016;2023-08-08T06:39:02;100062.97;;;14.26;67.26
65718;BME280;52445;52.466;-1.016;2023-08-08T06:41:30;100072.16;;;14.47;67.22
65718;BME280;52445;52.466;-1.016;2023-08-08T06:43:57;100075.13;;;14.74;66.97
65718;BME280;52445;52.466;-1.016;2023-08-08T06:46:23;100080.59;;;15.06;67.22
65718;BME280;52445;52.466;-1.016;2023-08-08T06:48:51;100080.78;;;15.38;67.15
65718;BME280;52445;52.466;-1.016;2023-08-08T06:51:24;100085.25;;;15.72;66.59
65718;BME280;52445;52.466;-1.016;2023-08-08T06:53:51;100092.41;;;16.02;66.50
65718;BME280;52445;52.466;-1.016;2023-08-08T06:56:18;100080.34;;;16.31;65.91
65718;BME280;52445;52.466;-1.016;2023-08-08T06:58:45;100082.28;;;16.57;66.36
65718;BME280;52445;52.466;-1.016;2023-08-08T07:01:12;100079.56;;;16.92;65.95
65718;BME280;52445;52.466;-1.016;2023-08-08T07:03:40;100062.81;;;17.30;65.50
65718;BME280;52445;52.466;-1.016;2023-08-08T07:06:07;100062.50;;;17.68;64.73
65718;BME280;52445;52.466;-1.016;2023-08-08T07:08:34;100065.78;;;18.02;63.92
65718;BME280;52445;52.466;-1.016;2023-08-08T07:11:00;100061.66;;;18.21;63.78
65718;BME280;52445;52.466;-1.016;2023-08-08T07:13:27;100054.81;;;18.43;63.05
65718;BME280;52445;52.466;-1.016;2023-08-08T07:15:54;100057.84;;;18.56;62.69
65718;BME280;52445;52.466;-1.016;2023-08-08T07:18:21;100054.19;;;18.60;61.84
65718;BME280;52445;52.466;-1.016;2023-08-08T07:20:47;100073.59;;;18.56;61.22
65718;BME280;52445;52.466;-1.016;2023-08-08T07:23:15;100069.59;;;18.45;61.61
65718;BME280;52445;52.466;-1.016;2023-08-08T07:25:43;100062.94;;;18.35;61.78
65718;BME280;52445;52.466;-1.016;2023-08-08T07:28:11;100063.16;;;18.29;61.30
65718;BME280;52445;52.466;-1.016;2023-08-08T07:30:38;100066.88;;;18.21;61.53
65718;BME280;52445;52.466;-1.016;2023-08-08T07:33:04;100063.69;;;18.13;61.27
65718;BME280;52445;52.466;-1.016;2023-08-08T07:35:33;100063.88;;;18.07;61.91
65718;BME280;52445;52.466;-1.016;2023-08-08T07:38:00;100052.63;;;18.03;61.66
65718;BME280;52445;52.466;-1.016;2023-08-08T07:40:27;100054.56;;;17.98;61.96
65718;BME280;52445;52.466;-1.016;2023-08-08T07:42:54;100058.09;;;17.97;61.70
65718;BME280;52445;52.466;-1.016;2023-08-08T07:45:20;100060.75;;;17.95;61.22
65718;BME280;52445;52.466;-1.016;2023-08-08T07:47:47;100057.22;;;17.96;61.36
65718;BME280;52445;52.466;-1.016;2023-08-08T07:50:14;100065.19;;;17.93;61.03
65718;BME280;52445;52.466;-1.016;2023-08-08T07:52:41;100053.03;;;17.91;61.92
65718;BME280;52445;52.466;-1.016;2023-08-08T07:55:08;100055.72;;;17.89;61.45
65718;BME280;52445;52.466;-1.016;2023-08-08T07:57:35;100060.03;;;17.90;60.95
65718;BME280;52445;52.466;-1.016;2023-08-08T08:00:03;100049.56;;;17.90;61.37
65718;BME280;52445;52.466;-1.016;2023-08-08T08:02:39;100055.72;;;17.89;60.97
65718;BME280;52445;52.466;-1.016;2023-08-08T08:05:07;100046.16;;;17.88;61.42
65718;BME280;52445;52.466;-1.016;2023-08-08T08:07:35;100055.81;;;17.86;61.66
65718;BME280;52445;52.466;-1.016;2023-08-08T08:10:03;100054.09;;;17.85;61.74
65718;BME280;52445;52.466;-1.016;2023-08-08T08:12:31;100051.47;;;17.85;61.02
65718;BME280;52445;52.466;-1.016;2023-08-08T08:14:58;100055.81;;;17.86;61.01
65718;BME280;52445;52.466;-1.016;2023-08-08T08:17:25;100054.84;;;17.89;62.09
65718;BME280;52445;52.466;-1.016;2023-08-08T08:19:54;100061.72;;;17.93;61.34
65718;BME280;52445;52.466;-1.016;2023-08-08T08:22:21;100046.75;;;17.96;61.30
65718;BME280;52445;52.466;-1.016;2023-08-08T08:24:48;100050.88;;;18.04;61.80
65718;BME280;52445;52.466;-1.016;2023-08-08T08:27:14;100051.59;;;18.09;61.01
65718;BME280;52445;52.466;-1.016;2023-08-08T08:29:41;100043.69;;;18.10;61.54
65718;BME280;52445;52.466;-1.016;2023-08-08T08:32:08;100052.31;;;18.14;61.44
65718;BME280;52445;52.466;-1.016;2023-08-08T08:34:35;100051.34;;;18.17;60.80
65718;BME280;52445;52.466;-1.016;2023-08-08T08:37:01;100058.13;;;18.22;61.40
65718;BME280;52445;52.466;-1.016;2023-08-08T08:39:28;100056.31;;;18.24;60.53
65718;BME280;52445;52.466;-1.016;2023-08-08T08:41:59;100047.53;;;18.26;61.26
65718;BME280;52445;52.466;-1.016;2023-08-08T08:44:31;100048.44;;;18.24;60.76
65718;BME280;52445;52.466;-1.016;2023-08-08T08:47:02;100059.75;;;18.27;61.09
65718;BME280;52445;52.466;-1.016;2023-08-08T08:49:30;100060.47;;;18.30;60.48
65718;BME280;52445;52.466;-1.016;2023-08-08T08:51:59;100055.88;;;18.37;61.32
65718;BME280;52445;52.466;-1.016;2023-08-08T08:54:32;100050.41;;;18.43;61.32
65718;BME280;52445;52.466;-1.016;2023-08-08T08:56:59;100052.78;;;18.51;61.04
65718;BME280;52445;52.466;-1.016;2023-08-08T08:59:26;100060.47;;;18.56;60.53
65718;BME280;52445;52.466;-1.016;2023-08-08T09:01:53;100060.47;;;18.56;60.68
65718;BME280;52445;52.466;-1.016;2023-08-08T09:04:20;100043.81;;;18.57;60.75
65718;BME280;52445;52.466;-1.016;2023-08-08T09:06:49;100054.09;;;18.63;60.73
65718;BME280;52445;52.466;-1.016;2023-08-08T09:09:17;100044.28;;;18.68;60.20
65718;BME280;52445;52.466;-1.016;2023-08-08T09:11:45;100032.59;;;18.77;60.27
65718;BME280;52445;52.466;-1.016;2023-08-08T09:14:16;100040.34;;;18.80;60.14
65718;BME280;52445;52.466;-1.016;2023-08-08T09:16:43;100038.09;;;18.71;59.99
65718;BME280;52445;52.466;-1.016;2023-08-08T09:19:10;100047.16;;;18.86;60.16
65718;BME280;52445;52.466;-1.016;2023-08-08T09:21:36;100059.13;;;18.93;59.76
65718;BME280;52445;52.466;-1.016;2023-08-08T09:24:03;100051.94;;;18.98;59.60
65718;BME280;52445;52.466;-1.016;2023-08-08T09:26:30;100054.50;;;19.00;59.41
65718;BME280;52445;52.466;-1.016;2023-08-08T09:28:57;100051.94;;;18.98;59.45
65718;BME280;52445;52.466;-1.016;2023-08-08T09:31:25;100044.91;;;18.99;59.69
65718;BME280;52445;52.466;-1.016;2023-08-08T09:33:54;100050.00;;;19.04;59.64
65718;BME280;52445;52.466;-1.016;2023-08-08T09:36:22;100053.38;;;19.07;60.25
65718;BME280;52445;52.466;-1.016;2023-08-08T09:38:50;100049.78;;;19.10;59.45
65718;BME280;52445;52.466;-1.016;2023-08-08T09:41:17;100047.22;;;19.08;59.47
65718;BME280;52445;52.466;-1.016;2023-08-08T09:43:44;100049.88;;;19.07;59.70
65718;BME280;52445;52.466;-1.016;2023-08-08T09:46:11;100049.88;;;19.07;59.43
65718;BME280;52445;52.466;-1.016;2023-08-08T09:48:39;100049.84;;;19.08;59.66
65718;BME280;52445;52.466;-1.016;2023-08-08T09:51:07;100041.13;;;19.08;59.65
65718;BME280;52445;52.466;-1.016;2023-08-08T09:53:35;100040.88;;;19.14;59.50
65718;BME280;52445;52.466;-1.016;2023-08-08T09:56:03;100036.97;;;19.24;59.77
65718;BME280;52445;52.466;-1.016;2023-08-08T09:58:30;100034.78;;;19.36;59.83
65718;BME280;52445;52.466;-1.016;2023-08-08T10:00:57;100023.00;;;19.46;59.32
65718;BME280;52445;52.466;-1.016;2023-08-08T10:03:25;100033.91;;;19.58;59.47
65718;BME280;52445;52.466;-1.016;2023-08-08T10:05:53;100033.44;;;19.70;59.23
65718;BME280;52445;52.466;-1.016;2023-08-08T10:08:19;100027.66;;;19.83;59.35
65718;BME280;52445;52.466;-1.016;2023-08-08T10:10:48;100024.50;;;19.95;59.06
65718;BME280;52445;52.466;-1.016;2023-08-08T10:13:21;100017.97;;;20.06;58.52
65718;BME280;52445;52.466;-1.016;2023-08-08T10:15:49;100020.13;;;20.16;58.26
65718;BME280;52445;52.466;-1.016;2023-08-08T10:18:17;100017.38;;;20.20;58.33
65718;BME280;52445;52.466;-1.016;2023-08-08T10:20:46;100019.53;;;20.31;58.22
65718;BME280;52445;52.466;-1.016;2023-08-08T10:23:16;100014.78;;;20.39;58.53
65718;BME280;52445;52.466;-1.016;2023-08-08T10:25:45;100012.66;;;20.47;57.86
65718;BME280;52445;52.466;-1.016;2023-08-08T10:28:13;100015.81;;;20.55;57.63
65718;BME280;52445;52.466;-1.016;2023-08-08T10:30:49;100017.22;;;20.63;57.82
65718;BME280;52445;52.466;-1.016;2023-08-08T10:33:20;100014.97;;;20.74;57.01
65718;BME280;52445;52.466;-1.016;2023-08-08T10:38:48;100017.44;;;20.77;56.67
65718;BME280;52445;52.466;-1.016;2023-08-08T10:41:19;100030.47;;;20.80;56.13
65718;BME280;52445;52.466;-1.016;2023-08-08T10:46:29;100021.66;;;20.81;56.43
65718;BME280;52445;52.466;-1.016;2023-08-08T10:48:59;100020.22;;;20.74;56.65
65718;BME280;52445;52.466;-1.016;2023-08-08T10:51:44;100020.78;;;20.62;56.30
65718;BME280;52445;52.466;-1.016;2023-08-08T10:56:51;100040.06;;;20.62;56.77
65718;BME280;52445;52.466;-1.016;2023-08-08T10:59:21;100042.91;;;20.58;56.29
65718;BME280;52445;52.466;-1.016;2023-08-08T11:01:51;100042.38;;;20.49;56.97
65718;BME280;52445;52.466;-1.016;2023-08-08T11:04:21;100044.22;;;20.47;57.38
65718;BME280;52445;52.466;-1.016;2023-08-08T11:06:48;100036.19;;;20.50;57.01
65718;BME280;52445;52.466;-1.016;2023-08-08T11:09:17;100040.56;;;20.51;57.62
65718;BME280;52445;52.466;-1.016;2023-08-08T11:11:45;100034.88;;;20.61;57.96
65718;BME280;52445;52.466;-1.016;2023-08-08T11:14:14;100040.00;;;20.64;57.61
65718;BME280;52445;52.466;-1.016;2023-08-08T11:16:42;100042.75;;;20.61;57.69
65718;BME280;52445;52.466;-1.016;2023-08-08T11:19:10;100038.38;;;20.61;58.19
65718;BME280;52445;52.466;-1.016;2023-08-08T11:21:38;100033.19;;;20.60;57.93
65718;BME280;52445;52.466;-1.016;2023-08-08T11:24:06;100029.88;;;20.54;57.77
65718;BME280;52445;52.466;-1.016;2023-08-08T11:26:34;100017.91;;;20.47;57.77
65718;BME280;52445;52.466;-1.016;2023-08-08T11:29:03;100024.03;;;20.48;58.17
65718;BME280;52445;52.466;-1.016;2023-08-08T11:31:30;100024.78;;;20.51;58.12
65718;BME280;52445;52.466;-1.016;2023-08-08T11:33:59;100025.34;;;20.58;57.91
65718;BME280;52445;52.466;-1.016;2023-08-08T11:36:29;100025.13;;;20.63;57.89
65718;BME280;52445;52.466;-1.016;2023-08-08T11:38:57;100038.06;;;20.67;58.34
65718;BME280;52445;52.466;-1.016;2023-08-08T11:41:24;100036.31;;;20.68;57.94
65718;BME280;52445;52.466;-1.016;2023-08-08T11:43:53;100030.13;;;20.69;58.00
65718;BME280;52445;52.466;-1.016;2023-08-08T11:46:23;100033.47;;;20.73;58.04
65718;BME280;52445;52.466;-1.016;2023-08-08T11:48:50;100022.84;;;20.74;58.39
65718;BME280;52445;52.466;-1.016;2023-08-08T11:51:17;100011.25;;;20.78;58.13
65718;BME280;52445;52.466;-1.016;2023-08-08T11:53:52;100014.25;;;20.71;57.65
65718;BME280;52445;52.466;-1.016;2023-08-08T11:56:20;100018.66;;;20.70;57.55
65718;BME280;52445;52.466;-1.016;2023-08-08T11:58:50;100018.94;;;20.64;57.20
65718;BME280;52445;52.466;-1.016;2023-08-08T12:01:22;100013.13;;;20.57;57.29
65718;BME280;52445;52.466;-1.016;2023-08-08T12:03:49;100011.75;;;20.48;57.49
65718;BME280;52445;52.466;-1.016;2023-08-08T12:06:16;100017.78;;;20.50;57.46
65718;BME280;52445;52.466;-1.016;2023-08-08T12:08:45;100021.47;;;20.46;57.20
65718;BME280;52445;52.466;-1.016;2023-08-08T12:11:13;100016.09;;;20.49;57.35
65718;BME280;52445;52.466;-1.016;2023-08-08T12:13:41;100012.38;;;20.53;57.35
65718;BME280;52445;52.466;-1.016;2023-08-08T12:16:09;100014.81;;;20.58;57.44
65718;BME280;52445;52.466;-1.016;2023-08-08T12:18:43;100013.69;;;20.64;57.67
65718;BME280;52445;52.466;-1.016;2023-08-08T12:21:10;100026.72;;;20.67;56.85
65718;BME280;52445;52.466;-1.016;2023-08-08T12:23:37;100019.34;;;20.54;57.26
65718;BME280;52445;52.466;-1.016;2023-08-08T12:26:04;100026.88;;;20.43;57.09
65718;BME280;52445;52.466;-1.016;2023-08-08T12:28:32;100030.72;;;20.36;57.37
65718;BME280;52445;52.466;-1.016;2023-08-08T12:30:59;100017.03;;;20.27;57.30
65718;BME280;52445;52.466;-1.016;2023-08-08T12:33:26;100016.31;;;20.24;57.85
65718;BME280;52445;52.466;-1.016;2023-08-08T12:35:52;100014.69;;;20.21;58.08
65718;BME280;52445;52.466;-1.016;2023-08-08T12:38:19;100004.16;;;20.21;58.29
65718;BME280;52445;52.466;-1.016;2023-08-08T12:40:46;100006.91;;;20.18;58.63
65718;BME280;52445;52.466;-1.016;2023-08-08T12:43:13;100003.38;;;20.19;58.31
65718;BME280;52445;52.466;-1.016;2023-08-08T12:45:44;99999.84;;;20.20;59.10
65718;BME280;52445;52.466;-1.016;2023-08-08T12:48:12;100004.94;;;20.23;58.84
65718;BME280;52445;52.466;-1.016;2023-08-08T12:50:39;100002.25;;;20.25;58.61
65718;BME280;52445;52.466;-1.016;2023-08-08T12:53:07;100002.38;;;20.22;59.22